Terminal Aerodrome Forecast
Issued by NWS Tulsa, OK

Home | Current Version | Previous Version | Text Only | Print | Product List | Glossary On
Versions: 1 2 3 4 5 6 7 8 9 10 11 12 13 14 15
419
FTUS44 KTSA 291720
TAFFSM
TAF
KFSM 291720Z 2918/3018 28016KT P6SM -TSRA VCTS SCT025 BKN035
      OVC070CB
      TEMPO 2918/2920 4SM -TSRA BKN025CB
     FM292000 25007KT P6SM SCT025 BKN050
     FM300200 VRB03KT P6SM SCT050 BKN250 PROB30 3006/3012 5SM -TSRA
      BKN050CB
     FM301200 VRB04KT P6SM SCT050 BKN250 PROB30 3012/3018 5SM -TSRA
      BKN025CB=

USA.gov is the U.S. government's official web portal to all federal, state and local government web resources and services.